Omaha, Nebraska
Current Conditions -  °F | °C
As of 3:52 PM on Monday 20 Oct 2014 (Local Time) from KOMA Reporting Station
Clear Clear  
Wind Chill: 73°   Ceiling: Unl
Heat Index: 73°   Visibility: 10mi
Dew Point: 39°   Wind: 6mph
Humidity: 29%   Direction: NA
Pressure: 30.04"   Gusts: NA
Location:  41.26°N, 95.94°W
Report Text: KOMA 202052Z VRB05KT 10SM CLR 23/04 A3004 RMK AO2 SLP172 T02280039 56016
Loading
Personal Weather Stations






























Interactive Weather Map New forecast layout! Learn more

10-Day Weather Forecast

Advertisements
Track Severe Weather on mobile